Time;durP1;ratioP1;P1;durP2;ratioP2;P2;SDS_P1;SDS_P2;PMS_P1;PMS_P2;Temp;Humidity;BMP_temperature;BMP_pressure;BME280_temperature;BME280_humidity;BME280_pressure;Samples;Min_cycle;Max_cycle;Signal;HPM_P1;HPM_P2
2021/12/12 00:00:57;;;;;;;28.95;19.88;;;;;;;;;;5094801;28;20020;-70
2021/12/12 00:03:37;;;;;;;42.58;26.55;;;;;;;;;;5078628;28;20496;-71
2021/12/12 00:06:05;;;;;;;28.90;19.42;;;;;;;;;;5095239;28;20028;-71
2021/12/12 00:08:32;;;;;;;24.67;16.67;;;;;;;;;;5094538;28;20031;-71
2021/12/12 00:11:01;;;;;;;24.42;16.08;;;;;;;;;;5094917;28;20034;-71
2021/12/12 00:13:30;;;;;;;22.70;14.60;;;;;;;;;;5094992;28;20032;-71
2021/12/12 00:15:56;;;;;;;25.25;18.25;;;;;;;;;;5094333;28;20491;-71
2021/12/12 00:18:23;;;;;;;25.45;16.52;;;;;;;;;;5094427;28;20051;-71
2021/12/12 00:20:49;;;;;;;21.95;14.27;;;;;;;;;;5094507;28;20376;-71
2021/12/12 00:23:16;;;;;;;22.35;13.55;;;;;;;;;;5094722;28;20077;-71
2021/12/12 00:25:45;;;;;;;22.65;12.90;;;;;;;;;;5094796;28;20103;-71
2021/12/12 00:28:12;;;;;;;21.48;13.88;;;;;;;;;;5094266;28;20020;-71
2021/12/12 00:30:38;;;;;;;19.67;12.43;;;;;;;;;;5094773;28;20048;-71
2021/12/12 00:33:05;;;;;;;19.60;12.65;;;;;;;;;;5094650;28;20036;-71
2021/12/12 00:35:31;;;;;;;13.30;9.52;;;;;;;;;;5093980;28;20020;-71
2021/12/12 00:38:03;;;;;;;16.58;11.85;;;;;;;;;;5094276;28;20024;-71
2021/12/12 00:40:32;;;;;;;28.75;16.27;;;;;;;;;;5094486;28;20032;-71
2021/12/12 00:43:01;;;;;;;37.60;22.42;;;;;;;;;;5093953;28;20103;-68
2021/12/12 00:45:28;;;;;;;25.55;15.77;;;;;;;;;;5094443;28;20404;-71
2021/12/12 00:47:54;;;;;;;22.95;13.82;;;;;;;;;;5094135;28;20036;-71
2021/12/12 00:50:26;;;;;;;27.30;17.13;;;;;;;;;;5093661;28;20020;-71
2021/12/12 00:52:52;;;;;;;28.58;18.27;;;;;;;;;;5094266;28;20035;-71
2021/12/12 00:55:18;;;;;;;26.60;18.33;;;;;;;;;;5094042;28;20027;-71
2021/12/12 00:57:50;;;;;;;28.05;16.50;;;;;;;;;;5093621;28;20084;-70
2021/12/12 01:00:18;;;;;;;39.60;23.70;;;;;;;;;;5094419;28;20043;-70
2021/12/12 01:02:44;;;;;;;34.17;22.55;;;;;;;;;;5093998;28;20020;-70
2021/12/12 01:05:12;;;;;;;33.13;22.60;;;;;;;;;;5093070;28;20050;-70
2021/12/12 01:07:40;;;;;;;43.08;26.70;;;;;;;;;;5093865;28;20076;-70
2021/12/12 01:10:10;;;;;;;46.90;27.38;;;;;;;;;;5093460;28;20102;-71
2021/12/12 01:12:36;;;;;;;26.25;17.88;;;;;;;;;;5093815;28;20021;-71
2021/12/12 01:15:07;;;;;;;21.95;14.20;;;;;;;;;;5094084;28;20036;-71
2021/12/12 01:17:38;;;;;;;24.30;15.50;;;;;;;;;;5093203;28;20043;-71
2021/12/12 01:20:20;;;;;;;24.00;15.57;;;;;;;;;;5093743;28;20077;-70
2021/12/12 01:22:47;;;;;;;19.25;11.50;;;;;;;;;;5093664;28;20028;-71
2021/12/12 01:25:16;;;;;;;16.88;11.32;;;;;;;;;;5093178;28;20091;-71
2021/12/12 01:27:43;;;;;;;17.63;11.32;;;;;;;;;;5093585;28;20028;-71
2021/12/12 01:30:11;;;;;;;17.88;11.13;;;;;;;;;;5093854;28;20056;-71
2021/12/12 01:32:37;;;;;;;25.50;15.52;;;;;;;;;;5093180;28;20047;-72
2021/12/12 01:35:13;;;;;;;36.35;22.58;;;;;;;;;;5093621;28;20024;-72
2021/12/12 01:37:42;;;;;;;31.13;20.35;;;;;;;;;;5093837;28;20502;-70
2021/12/12 01:40:09;;;;;;;35.33;21.63;;;;;;;;;;5093009;28;20032;-69
2021/12/12 01:42:38;;;;;;;34.58;21.08;;;;;;;;;;5093531;28;20103;-70
2021/12/12 01:45:08;;;;;;;30.38;19.80;;;;;;;;;;5093474;28;20443;-69
2021/12/12 01:47:56;;;;;;;23.45;15.65;;;;;;;;;;5093458;28;20024;-69
2021/12/12 01:50:26;;;;;;;19.85;13.45;;;;;;;;;;5093377;28;20020;-70
2021/12/12 01:52:52;;;;;;;20.60;12.30;;;;;;;;;;5091681;28;20027;-70
2021/12/12 01:55:33;;;;;;;20.48;12.50;;;;;;;;;;5093341;28;20031;-69
2021/12/12 01:58:01;;;;;;;15.93;11.00;;;;;;;;;;5093352;28;20425;-70
2021/12/12 02:00:34;;;;;;;14.30;9.82;;;;;;;;;;5092822;28;20028;-69
2021/12/12 02:03:01;;;;;;;22.65;14.05;;;;;;;;;;5093299;28;20161;-70
2021/12/12 02:05:29;;;;;;;32.35;20.23;;;;;;;;;;5093202;28;20028;-70
2021/12/12 02:07:59;;;;;;;28.58;17.85;;;;;;;;;;5092863;28;20020;-69
2021/12/12 02:10:32;;;;;;;25.25;15.65;;;;;;;;;;5093124;28;20020;-69
2021/12/12 02:13:07;;;;;;;23.83;14.57;;;;;;;;;;5093502;28;20028;-69
2021/12/12 02:15:36;;;;;;;27.30;17.05;;;;;;;;;;5092755;28;20012;-69
2021/12/12 02:18:05;;;;;;;26.27;15.60;;;;;;;;;;5095268;28;20385;-69
2021/12/12 02:20:38;;;;;;;22.08;15.70;;;;;;;;;;5096493;28;20060;-69
2021/12/12 02:36:41;;;;;;;13.18;7.53;;;;;;;;;;5096406;28;20463;-70
2021/12/12 02:39:15;;;;;;;13.30;8.02;;;;;;;;;;5096562;28;20092;-70
2021/12/12 02:41:42;;;;;;;10.20;5.68;;;;;;;;;;5096657;28;20516;-70
2021/12/12 02:44:09;;;;;;;7.25;3.60;;;;;;;;;;5096479;28;20020;-70
2021/12/12 02:46:37;;;;;;;6.25;3.25;;;;;;;;;;5096535;28;20024;-70
2021/12/12 02:49:09;;;;;;;6.00;3.33;;;;;;;;;;5096031;28;20028;-70
2021/12/12 02:51:40;;;;;;;9.25;3.88;;;;;;;;;;5096774;28;20028;-70
2021/12/12 02:54:06;;;;;;;7.10;3.17;;;;;;;;;;5096366;28;20102;-71
2021/12/12 02:56:35;;;;;;;5.63;2.40;;;;;;;;;;5095898;28;20020;-70
2021/12/12 02:59:03;;;;;;;6.50;2.95;;;;;;;;;;5096496;28;20096;-70
2021/12/12 03:01:32;;;;;;;6.00;2.20;;;;;;;;;;5096457;28;20105;-70
2021/12/12 03:03:58;;;;;;;4.07;2.45;;;;;;;;;;5095902;28;20028;-70
2021/12/12 03:06:26;;;;;;;4.40;2.17;;;;;;;;;;5096146;28;20097;-70
2021/12/12 03:08:55;;;;;;;4.38;2.20;;;;;;;;;;5096089;28;20024;-70
2021/12/12 03:11:24;;;;;;;2.22;1.70;;;;;;;;;;5095687;28;20051;-70
2021/12/12 03:13:52;;;;;;;4.85;2.10;;;;;;;;;;5095928;28;20054;-70
2021/12/12 03:16:18;;;;;;;2.63;1.30;;;;;;;;;;5095944;28;20024;-70
2021/12/12 03:18:45;;;;;;;2.63;1.30;;;;;;;;;;5095254;28;20044;-70
2021/12/12 03:21:28;;;;;;;3.45;1.48;;;;;;;;;;5094533;28;20024;-70
2021/12/12 03:23:56;;;;;;;2.83;1.20;;;;;;;;;;5095353;28;20028;-70
2021/12/12 03:26:22;;;;;;;1.30;0.70;;;;;;;;;;5095696;28;20081;-70
2021/12/12 03:28:50;;;;;;;0.85;0.70;;;;;;;;;;5093981;28;20391;-70
2021/12/12 03:31:17;;;;;;;4.32;0.98;;;;;;;;;;5095229;28;20016;-70
2021/12/12 03:33:43;;;;;;;1.17;0.60;;;;;;;;;;5095747;28;20069;-70
2021/12/12 03:36:11;;;;;;;2.15;0.80;;;;;;;;;;5095561;28;20376;-70
2021/12/12 03:38:38;;;;;;;0.60;0.50;;;;;;;;;;5095064;28;20035;-70
2021/12/12 03:41:06;;;;;;;1.42;0.60;;;;;;;;;;5095648;28;20028;-70
2021/12/12 03:43:33;;;;;;;0.60;0.60;;;;;;;;;;5095473;28;20384;-70
2021/12/12 03:46:00;;;;;;;3.30;0.98;;;;;;;;;;5094975;28;20107;-70
2021/12/12 03:48:29;;;;;;;0.57;0.47;;;;;;;;;;5095266;28;20051;-70
2021/12/12 03:50:57;;;;;;;1.67;0.70;;;;;;;;;;5095399;28;20488;-70
2021/12/12 03:53:26;;;;;;;2.38;0.70;;;;;;;;;;5094801;28;20059;-70
2021/12/12 03:55:52;;;;;;;2.22;1.10;;;;;;;;;;5095374;28;20470;-70
2021/12/12 03:58:18;;;;;;;8.93;2.97;;;;;;;;;;5095254;28;20481;-70
2021/12/12 04:00:50;;;;;;;10.75;3.30;;;;;;;;;;5094779;28;20032;-70
2021/12/12 04:03:17;;;;;;;6.53;1.85;;;;;;;;;;5095045;28;20082;-70
2021/12/12 04:05:47;;;;;;;5.90;2.28;;;;;;;;;;5094950;28;20024;-70
2021/12/12 04:08:14;;;;;;;4.95;1.92;;;;;;;;;;5094901;28;20361;-70
2021/12/12 04:10:41;;;;;;;2.90;1.30;;;;;;;;;;5094914;28;20095;-70
2021/12/12 04:13:07;;;;;;;5.50;1.73;;;;;;;;;;5094438;28;20562;-70
2021/12/12 04:15:33;;;;;;;1.25;0.88;;;;;;;;;;5094819;28;20387;-70
2021/12/12 04:18:00;;;;;;;1.67;1.10;;;;;;;;;;5094595;28;20488;-70
2021/12/12 04:20:31;;;;;;;2.35;1.13;;;;;;;;;;5094202;28;20469;-70
2021/12/12 04:22:57;;;;;;;5.95;1.33;;;;;;;;;;5094640;28;20024;-70
2021/12/12 04:25:24;;;;;;;2.08;1.10;;;;;;;;;;5094575;28;20027;-70
2021/12/12 04:27:51;;;;;;;3.08;1.30;;;;;;;;;;5094223;28;20028;-70
2021/12/12 04:30:18;;;;;;;2.00;0.93;;;;;;;;;;5094538;28;20024;-70
2021/12/12 04:32:45;;;;;;;1.25;0.77;;;;;;;;;;5094497;28;20024;-70
2021/12/12 04:35:16;;;;;;;0.75;0.60;;;;;;;;;;5094308;28;20090;-70
2021/12/12 04:37:44;;;;;;;1.52;0.75;;;;;;;;;;5094350;28;20032;-70
2021/12/12 04:40:12;;;;;;;1.25;0.77;;;;;;;;;;5093518;28;20028;-70
2021/12/12 04:42:40;;;;;;;1.45;0.88;;;;;;;;;;5093927;28;20028;-70
2021/12/12 04:45:09;;;;;;;2.83;1.00;;;;;;;;;;5094276;28;20058;-70
2021/12/12 04:50:28;;;;;;;2.35;1.02;;;;;;;;;;5094341;28;20035;-70
2021/12/12 04:52:59;;;;;;;4.65;1.90;;;;;;;;;;5094344;28;20034;-70
2021/12/12 04:55:35;;;;;;;3.28;1.70;;;;;;;;;;5093909;28;20069;-70
2021/12/12 04:58:07;;;;;;;7.13;2.88;;;;;;;;;;5094309;28;20496;-70
2021/12/12 05:00:37;;;;;;;5.13;2.40;;;;;;;;;;5093887;28;20081;-70
2021/12/12 05:03:19;;;;;;;3.58;1.45;;;;;;;;;;5093617;28;20026;-70
2021/12/12 05:05:51;;;;;;;4.10;1.85;;;;;;;;;;5093940;28;20451;-70
2021/12/12 05:08:20;;;;;;;8.63;3.13;;;;;;;;;;5093880;28;20136;-70
2021/12/12 05:10:52;;;;;;;2.10;1.13;;;;;;;;;;5093435;28;20491;-70
2021/12/12 05:13:21;;;;;;;5.75;2.47;;;;;;;;;;5093788;28;20526;-70
2021/12/12 05:15:48;;;;;;;5.03;2.00;;;;;;;;;;5093947;28;20020;-70
2021/12/12 05:18:19;;;;;;;6.57;2.08;;;;;;;;;;5093039;28;20097;-70
2021/12/12 05:20:47;;;;;;;4.05;1.85;;;;;;;;;;5093758;28;20039;-70
2021/12/12 05:23:14;;;;;;;3.17;1.50;;;;;;;;;;5093287;28;20017;-70
2021/12/12 05:25:48;;;;;;;2.72;1.48;;;;;;;;;;5092442;28;20058;-70
2021/12/12 05:28:14;;;;;;;;;;;;;;;;;;5094287;28;20027;-70
2021/12/12 05:30:40;;;;;;;3.63;1.95;;;;;;;;;;5093245;28;20388;-70
2021/12/12 05:33:10;;;;;;;6.20;2.65;;;;;;;;;;5092343;28;20379;-70
2021/12/12 05:35:37;;;;;;;6.40;2.80;;;;;;;;;;5093534;28;20133;-70
2021/12/12 05:38:03;;;;;;;4.22;2.10;;;;;;;;;;5091827;28;20043;-70
2021/12/12 05:40:31;;;;;;;4.32;2.00;;;;;;;;;;5093958;28;20060;-70
2021/12/12 05:42:59;;;;;;;3.97;2.03;;;;;;;;;;5092278;28;20028;-70
2021/12/12 05:45:26;;;;;;;3.13;1.42;;;;;;;;;;5093145;28;20031;-70
2021/12/12 05:47:52;;;;;;;5.95;1.50;;;;;;;;;;5093470;28;20103;-70
2021/12/12 05:50:19;;;;;;;3.42;1.40;;;;;;;;;;5093518;28;20024;-70
2021/12/12 05:52:46;;;;;;;4.57;1.90;;;;;;;;;;5096662;28;20030;-70
2021/12/12 05:55:14;;;;;;;4.68;2.28;;;;;;;;;;5097480;28;20024;-70
2021/12/12 05:57:43;;;;;;;4.30;2.00;;;;;;;;;;5097486;28;20027;-69
2021/12/12 06:00:11;;;;;;;7.50;2.05;;;;;;;;;;5096864;28;20032;-69
2021/12/12 06:02:38;;;;;;;7.63;3.53;;;;;;;;;;5097398;28;20024;-70
2021/12/12 06:05:05;;;;;;;6.72;3.03;;;;;;;;;;5097500;28;20028;-70
2021/12/12 06:07:32;;;;;;;4.93;2.47;;;;;;;;;;5095647;28;20024;-70
2021/12/12 06:10:01;;;;;;;4.13;2.20;;;;;;;;;;5098058;28;20073;-70
2021/12/12 06:12:27;;;;;;;7.18;3.78;;;;;;;;;;5096767;28;20030;-73
2021/12/12 06:14:54;;;;;;;6.57;3.78;;;;;;;;;;5097118;28;20043;-71
2021/12/12 06:17:22;;;;;;;6.20;3.03;;;;;;;;;;5097062;28;20051;-73
2021/12/12 06:19:49;;;;;;;6.88;2.90;;;;;;;;;;5096860;28;20050;-71
2021/12/12 06:22:15;;;;;;;7.28;3.95;;;;;;;;;;5097054;28;20020;-72
2021/12/12 06:24:41;;;;;;;9.18;4.43;;;;;;;;;;5096987;28;20055;-74
2021/12/12 06:27:15;;;;;;;6.55;3.13;;;;;;;;;;5096571;28;20421;-72
2021/12/12 06:29:42;;;;;;;6.55;3.15;;;;;;;;;;5097049;28;20124;-71
2021/12/12 06:32:08;;;;;;;9.48;3.45;;;;;;;;;;5096789;28;20026;-72
2021/12/12 06:34:34;;;;;;;11.90;5.97;;;;;;;;;;5096422;28;20111;-72
2021/12/12 06:37:01;;;;;;;9.48;4.22;;;;;;;;;;5096738;28;20028;-69
2021/12/12 06:39:27;;;;;;;8.18;3.58;;;;;;;;;;5096636;28;20028;-70
2021/12/12 06:41:54;;;;;;;5.60;2.63;;;;;;;;;;5096091;28;20465;-69
2021/12/12 06:44:20;;;;;;;4.90;3.05;;;;;;;;;;5096522;28;20024;-70
2021/12/12 06:46:46;;;;;;;9.48;4.35;;;;;;;;;;5096669;28;20020;-70
2021/12/12 06:49:14;;;;;;;9.77;4.80;;;;;;;;;;5096234;28;20028;-70
2021/12/12 06:51:53;;;;;;;13.18;6.03;;;;;;;;;;5096416;28;20431;-71
2021/12/12 06:54:21;;;;;;;19.23;9.10;;;;;;;;;;5096440;28;20101;-71
2021/12/12 06:56:49;;;;;;;22.30;10.82;;;;;;;;;;5095994;28;20024;-70
2021/12/12 06:59:15;;;;;;;15.95;7.78;;;;;;;;;;5096413;28;20108;-71
2021/12/12 07:01:42;;;;;;;13.07;7.32;;;;;;;;;;5096364;28;20020;-71
2021/12/12 07:04:11;;;;;;;9.25;3.85;;;;;;;;;;5095277;28;20353;-72
2021/12/12 07:06:39;;;;;;;10.35;5.05;;;;;;;;;;5096242;28;20020;-72
2021/12/12 07:09:06;;;;;;;12.15;5.70;;;;;;;;;;5095813;28;20020;-72
2021/12/12 07:11:33;;;;;;;16.67;7.47;;;;;;;;;;5096245;28;20027;-72
2021/12/12 07:14:01;;;;;;;17.88;9.15;;;;;;;;;;5095953;28;20020;-72
2021/12/12 07:16:27;;;;;;;15.23;7.35;;;;;;;;;;5095847;28;20059;-73
2021/12/12 07:18:54;;;;;;;14.23;7.13;;;;;;;;;;5095604;28;20064;-71
2021/12/12 07:21:22;;;;;;;19.85;9.32;;;;;;;;;;5095956;28;20017;-72
2021/12/12 07:23:52;;;;;;;13.85;7.15;;;;;;;;;;5095610;28;20031;-73
2021/12/12 07:26:19;;;;;;;13.20;7.35;;;;;;;;;;5096270;28;20464;-73
2021/12/12 07:28:46;;;;;;;11.73;5.90;;;;;;;;;;5095759;28;20031;-71
2021/12/12 07:31:14;;;;;;;10.85;5.70;;;;;;;;;;5095454;28;20024;-71
2021/12/12 07:33:41;;;;;;;14.95;6.22;;;;;;;;;;5095664;28;20024;-72
2021/12/12 07:36:08;;;;;;;10.82;5.18;;;;;;;;;;5095662;28;20042;-72
2021/12/12 07:38:35;;;;;;;13.20;6.55;;;;;;;;;;5095064;28;20034;-72
2021/12/12 07:41:02;;;;;;;13.80;6.40;;;;;;;;;;5095740;28;20047;-72
2021/12/12 07:43:29;;;;;;;17.27;7.03;;;;;;;;;;5095750;28;20432;-71
2021/12/12 07:45:55;;;;;;;11.60;6.78;;;;;;;;;;5094990;28;20056;-70
2021/12/12 07:48:21;;;;;;;23.38;11.68;;;;;;;;;;5095422;28;20017;-71
2021/12/12 07:50:48;;;;;;;15.10;7.88;;;;;;;;;;5095311;28;20472;-72
2021/12/12 07:53:15;;;;;;;32.45;16.63;;;;;;;;;;5093593;28;20468;-72
2021/12/12 07:55:41;;;;;;;23.58;14.07;;;;;;;;;;5095246;28;20085;-70
2021/12/12 07:58:09;;;;;;;26.20;12.77;;;;;;;;;;5094770;28;20031;-71
2021/12/12 08:00:36;;;;;;;23.45;11.88;;;;;;;;;;5095045;28;20036;-71
2021/12/12 08:03:03;;;;;;;48.10;22.85;;;;;;;;;;5095148;28;20024;-71
2021/12/12 08:05:31;;;;;;;21.40;9.57;;;;;;;;;;5094630;28;20099;-71
2021/12/12 08:07:59;;;;;;;19.42;10.60;;;;;;;;;;5095091;28;20020;-72
2021/12/12 08:10:26;;;;;;;19.17;9.68;;;;;;;;;;5094854;28;20024;-71
2021/12/12 08:12:52;;;;;;;19.27;9.63;;;;;;;;;;5094482;28;20032;-70
2021/12/12 08:15:19;;;;;;;24.13;13.00;;;;;;;;;;5094832;28;20097;-71
2021/12/12 08:17:45;;;;;;;20.48;10.80;;;;;;;;;;5094560;28;20040;-71
2021/12/12 08:20:13;;;;;;;22.30;11.27;;;;;;;;;;5094395;28;20035;-70
2021/12/12 08:22:39;;;;;;;19.15;11.25;;;;;;;;;;5094868;28;20046;-71
2021/12/12 08:25:08;;;;;;;13.15;7.80;;;;;;;;;;5094626;28;20027;-70
2021/12/12 08:27:34;;;;;;;13.60;9.00;;;;;;;;;;5094526;28;20379;-71
2021/12/12 08:30:01;;;;;;;14.13;6.72;;;;;;;;;;5094412;28;20097;-70
2021/12/12 08:32:27;;;;;;;14.40;6.90;;;;;;;;;;5094482;28;20027;-71
2021/12/12 08:34:54;;;;;;;13.57;8.20;;;;;;;;;;5094181;28;20031;-71
2021/12/12 08:37:20;;;;;;;20.98;11.27;;;;;;;;;;5094369;28;20024;-71
2021/12/12 08:39:46;;;;;;;17.45;8.98;;;;;;;;;;5094308;28;20064;-71
2021/12/12 08:42:13;;;;;;;18.90;11.15;;;;;;;;;;5093794;28;20024;-70
2021/12/12 08:44:40;;;;;;;18.02;7.20;;;;;;;;;;5094412;28;20031;-71
2021/12/12 08:47:07;;;;;;;12.05;6.18;;;;;;;;;;5092913;28;20027;-72
2021/12/12 08:49:34;;;;;;;10.70;5.45;;;;;;;;;;5093792;28;20031;-71
2021/12/12 08:52:10;;;;;;;12.82;7.53;;;;;;;;;;5094418;28;20024;-71
2021/12/12 08:54:40;;;;;;;10.82;5.47;;;;;;;;;;5093673;28;20426;-71
2021/12/12 08:57:39;;;;;;;11.93;4.78;;;;;;;;;;5094038;28;20020;-71
2021/12/12 09:00:07;;;;;;;11.30;5.18;;;;;;;;;;5094133;28;20050;-71
2021/12/12 09:02:34;;;;;;;15.35;7.45;;;;;;;;;;5092383;28;20016;-72
2021/12/12 09:05:08;;;;;;;13.90;6.00;;;;;;;;;;5094055;28;20073;-71
2021/12/12 09:07:36;;;;;;;12.68;7.30;;;;;;;;;;5094306;28;20053;-71
2021/12/12 09:10:08;;;;;;;22.58;11.82;;;;;;;;;;5093499;28;20476;-71
2021/12/12 09:12:46;;;;;;;12.85;7.90;;;;;;;;;;5093950;28;20034;-71
2021/12/12 09:15:12;;;;;;;10.77;5.32;;;;;;;;;;5094004;28;20031;-71
2021/12/12 09:17:49;;;;;;;8.93;5.10;;;;;;;;;;5093180;28;20074;-71
2021/12/12 09:20:26;;;;;;;16.52;9.35;;;;;;;;;;5093716;28;20433;-71
2021/12/12 09:23:12;;;;;;;10.45;5.85;;;;;;;;;;5092103;28;20020;-71
2021/12/12 09:25:50;;;;;;;10.25;6.38;;;;;;;;;;5093817;28;20046;-71
2021/12/12 09:28:21;;;;;;;10.27;5.35;;;;;;;;;;5093589;28;20073;-71
2021/12/12 09:30:47;;;;;;;12.27;6.97;;;;;;;;;;5093367;28;20095;-71
2021/12/12 09:33:22;;;;;;;11.32;6.28;;;;;;;;;;5093568;28;20512;-71
2021/12/12 09:36:15;;;;;;;10.98;6.07;;;;;;;;;;5093590;28;20499;-71
2021/12/12 09:39:01;;;;;;;12.32;6.03;;;;;;;;;;5069613;28;20468;-70
2021/12/12 09:41:31;;;;;;;11.77;5.00;;;;;;;;;;5093694;28;20120;-70
2021/12/12 09:44:05;;;;;;;14.27;7.80;;;;;;;;;;5093217;28;20024;-70
2021/12/12 09:46:45;;;;;;;20.98;12.25;;;;;;;;;;5093784;28;20055;-71
2021/12/12 09:52:14;;;;;;;16.07;7.17;;;;;;;;;;5093296;28;20047;-70
2021/12/12 09:54:47;;;;;;;12.23;6.13;;;;;;;;;;5093345;28;20099;-70
2021/12/12 09:57:14;;;;;;;27.00;14.70;;;;;;;;;;5093522;28;20047;-71
2021/12/12 09:59:59;;;;;;;18.20;8.43;;;;;;;;;;5092863;28;20066;-71
2021/12/12 10:02:28;;;;;;;20.55;11.00;;;;;;;;;;5092027;28;20028;-70
2021/12/12 10:05:03;;;;;;;16.55;8.60;;;;;;;;;;5092989;28;20028;-71
2021/12/12 10:07:48;;;;;;;11.63;6.47;;;;;;;;;;5093552;28;20468;-71
2021/12/12 10:10:27;;;;;;;15.52;7.75;;;;;;;;;;5091976;28;20398;-70
2021/12/12 10:13:17;;;;;;;14.55;6.30;;;;;;;;;;5092910;28;20035;-70
2021/12/12 10:15:46;;;;;;;14.18;7.38;;;;;;;;;;5085414;28;20496;-70
2021/12/12 10:18:20;;;;;;;15.15;7.95;;;;;;;;;;5092950;28;20496;-71
2021/12/12 10:20:52;;;;;;;15.43;6.03;;;;;;;;;;5092667;28;20484;-71
2021/12/12 10:23:37;;;;;;;13.82;7.18;;;;;;;;;;5093338;28;20480;-71
2021/12/12 10:26:06;;;;;;;19.10;12.02;;;;;;;;;;5092634;28;20039;-71
2021/12/12 10:28:32;;;;;;;12.00;6.20;;;;;;;;;;5093436;28;20048;-71
2021/12/12 10:31:17;;;;;;;12.93;7.95;;;;;;;;;;5093111;28;20024;-71
2021/12/12 10:33:55;;;;;;;15.20;6.15;;;;;;;;;;5092692;28;20024;-71
2021/12/12 10:36:29;;;;;;;12.52;6.30;;;;;;;;;;5092989;28;20410;-71
2021/12/12 10:38:59;;;;;;;14.82;6.55;;;;;;;;;;5095155;28;20441;-71
2021/12/12 10:41:28;;;;;;;11.15;5.57;;;;;;;;;;5096317;28;20040;-71
2021/12/12 10:43:57;;;;;;;14.68;8.30;;;;;;;;;;5096277;28;20078;-71
2021/12/12 10:46:43;;;;;;;12.52;6.82;;;;;;;;;;5096474;28;20016;-71
2021/12/12 10:49:28;;;;;;;10.25;4.47;;;;;;;;;;5085146;28;20040;-71
2021/12/12 10:52:00;;;;;;;8.30;4.95;;;;;;;;;;5096557;28;20048;-71
2021/12/12 10:54:29;;;;;;;12.43;5.40;;;;;;;;;;5096297;28;20021;-74
2021/12/12 10:57:07;;;;;;;13.13;6.22;;;;;;;;;;5096273;28;20020;-71
2021/12/12 10:59:33;;;;;;;15.25;7.72;;;;;;;;;;5096603;28;20531;-71
2021/12/12 11:02:03;;;;;;;25.25;11.07;;;;;;;;;;5095783;28;20035;-71
2021/12/12 11:04:49;;;;;;;14.93;8.55;;;;;;;;;;5096118;28;20028;-70
2021/12/12 11:07:18;;;;;;;18.40;9.02;;;;;;;;;;5095168;28;20028;-70
2021/12/12 11:10:05;;;;;;;14.38;6.80;;;;;;;;;;5095677;28;20035;-71
2021/12/12 11:12:50;;;;;;;10.70;5.47;;;;;;;;;;5096181;28;20024;-70
2021/12/12 11:15:28;;;;;;;9.90;5.47;;;;;;;;;;5095835;28;20077;-71
2021/12/12 11:18:03;;;;;;;8.88;4.80;;;;;;;;;;5096077;28;20535;-71
2021/12/12 11:20:35;;;;;;;12.20;7.30;;;;;;;;;;5096062;28;20391;-71
2021/12/12 11:23:24;;;;;;;10.30;5.32;;;;;;;;;;5095808;28;20020;-71
2021/12/12 11:25:53;;;;;;;6.78;3.28;;;;;;;;;;5087961;28;20103;-72
2021/12/12 11:28:29;;;;;;;8.45;4.28;;;;;;;;;;5094385;28;20077;-72
2021/12/12 11:31:01;;;;;;;13.15;5.15;;;;;;;;;;5095214;28;20031;-71
2021/12/12 11:33:31;;;;;;;12.98;7.30;;;;;;;;;;5095636;28;20031;-71
2021/12/12 11:35:57;;;;;;;9.07;4.85;;;;;;;;;;5095758;28;20012;-71
2021/12/12 11:38:29;;;;;;;16.15;8.30;;;;;;;;;;5095126;28;20028;-71
2021/12/12 11:40:58;;;;;;;12.75;7.15;;;;;;;;;;5095538;28;20040;-71
2021/12/12 11:43:33;;;;;;;13.73;8.07;;;;;;;;;;5094990;28;20024;-71
2021/12/12 11:46:01;;;;;;;11.57;5.53;;;;;;;;;;5094144;28;20111;-71
2021/12/12 11:48:40;;;;;;;16.70;8.38;;;;;;;;;;5095126;28;20031;-71
2021/12/12 11:51:25;;;;;;;17.77;9.82;;;;;;;;;;5094975;28;20039;-71
2021/12/12 11:53:54;;;;;;;23.42;10.77;;;;;;;;;;5095709;28;20020;-71
2021/12/12 11:56:28;;;;;;;21.85;10.32;;;;;;;;;;5095225;28;20024;-71
2021/12/12 11:59:03;;;;;;;26.42;13.35;;;;;;;;;;5094829;28;20107;-71
2021/12/12 12:01:59;;;;;;;25.60;12.05;;;;;;;;;;5095650;28;20024;-70
2021/12/12 12:04:43;;;;;;;18.20;8.77;;;;;;;;;;5077279;28;20082;-71
2021/12/12 12:07:28;;;;;;;14.70;8.00;;;;;;;;;;5095028;28;20048;-70
2021/12/12 12:10:18;;;;;;;13.95;7.47;;;;;;;;;;5094928;28;20028;-71
2021/12/12 12:13:03;;;;;;;22.73;9.32;;;;;;;;;;5094684;28;20023;-71
2021/12/12 12:15:29;;;;;;;15.15;8.77;;;;;;;;;;5095130;28;20028;-71
2021/12/12 12:17:59;;;;;;;17.52;10.90;;;;;;;;;;5093172;28;20055;-71
2021/12/12 12:20:48;;;;;;;17.88;9.45;;;;;;;;;;5094211;28;20111;-70
2021/12/12 12:23:17;;;;;;;18.48;9.38;;;;;;;;;;5086529;28;20063;-71
2021/12/12 12:28:50;;;;;;;12.75;6.28;;;;;;;;;;5094612;28;20051;-71
2021/12/12 12:31:36;;;;;;;14.38;7.85;;;;;;;;;;5093286;28;20020;-71
2021/12/12 12:34:21;;;;;;;15.52;7.47;;;;;;;;;;5094167;28;20032;-71
2021/12/12 12:36:53;;;;;;;14.15;7.38;;;;;;;;;;5094535;28;20515;-71
2021/12/12 12:39:32;;;;;;;14.20;7.53;;;;;;;;;;5094257;28;20042;-71
2021/12/12 12:42:21;;;;;;;17.95;8.90;;;;;;;;;;5094521;28;20020;-71
2021/12/12 12:45:06;;;;;;;14.73;8.93;;;;;;;;;;5094574;28;20369;-71
2021/12/12 12:47:41;;;;;;;15.40;8.20;;;;;;;;;;5093758;28;20024;-71
2021/12/12 12:50:26;;;;;;;18.50;10.63;;;;;;;;;;5092940;28;20028;-71
2021/12/12 12:53:04;;;;;;;27.30;11.73;;;;;;;;;;5094080;28;20468;-71
2021/12/12 12:55:33;;;;;;;30.23;13.82;;;;;;;;;;5093734;28;20073;-71
2021/12/12 12:58:21;;;;;;;25.08;13.35;;;;;;;;;;5093981;28;20020;-71
2021/12/12 13:00:49;;;;;;;22.90;11.18;;;;;;;;;;5092974;28;20044;-71
2021/12/12 13:03:27;;;;;;;24.33;13.95;;;;;;;;;;5094125;28;20028;-71
2021/12/12 13:06:04;;;;;;;18.50;8.63;;;;;;;;;;5094142;28;20035;-71
2021/12/12 13:08:49;;;;;;;16.25;9.30;;;;;;;;;;5093429;28;20023;-71
2021/12/12 13:11:17;;;;;;;14.82;9.15;;;;;;;;;;5093795;28;20384;-70
2021/12/12 13:13:49;;;;;;;23.85;11.40;;;;;;;;;;5093604;28;20116;-70
2021/12/12 13:16:19;;;;;;;26.80;15.93;;;;;;;;;;5093432;28;20098;-71
2021/12/12 13:18:53;;;;;;;19.75;10.20;;;;;;;;;;5093441;28;20055;-71
2021/12/12 13:21:20;;;;;;;19.13;8.70;;;;;;;;;;5093521;28;20048;-71
2021/12/12 13:23:57;;;;;;;13.70;7.32;;;;;;;;;;5093254;28;20162;-71
2021/12/12 13:26:26;;;;;;;15.73;7.30;;;;;;;;;;5093942;28;20028;-72
2021/12/12 13:29:14;;;;;;;14.30;8.32;;;;;;;;;;5093106;28;20024;-72
2021/12/12 13:31:41;;;;;;;18.50;9.77;;;;;;;;;;5093615;28;20044;-70
2021/12/12 13:34:10;;;;;;;16.40;9.73;;;;;;;;;;5093718;28;20042;-71
2021/12/12 13:36:43;;;;;;;12.77;6.68;;;;;;;;;;5091781;28;20024;-71
2021/12/12 13:39:23;;;;;;;16.88;8.40;;;;;;;;;;5093287;28;20027;-70
2021/12/12 13:41:56;;;;;;;12.25;6.78;;;;;;;;;;5093769;28;20521;-71
2021/12/12 13:44:22;;;;;;;;;;;;;;;;;;5092168;28;20028;-72
2021/12/12 13:46:56;;;;;;;9.55;5.80;;;;;;;;;;5093408;28;19904;-71
2021/12/12 13:49:27;;;;;;;14.25;7.45;;;;;;;;;;5093567;28;20032;-71
2021/12/12 13:51:56;;;;;;;12.63;6.63;;;;;;;;;;5092970;28;20468;-71
2021/12/12 13:54:36;;;;;;;10.27;5.15;;;;;;;;;;5093603;28;20028;-71
2021/12/12 13:57:09;;;;;;;11.23;6.47;;;;;;;;;;5093463;28;20085;-71
2021/12/12 13:59:50;;;;;;;13.77;7.03;;;;;;;;;;5093613;28;20032;-71
2021/12/12 14:02:17;;;;;;;12.32;6.18;;;;;;;;;;5093701;28;20044;-71
2021/12/12 14:04:50;;;;;;;15.38;6.18;;;;;;;;;;5092805;28;20024;-71
2021/12/12 14:07:17;;;;;;;16.13;8.35;;;;;;;;;;5092253;28;20405;-71
2021/12/12 14:09:48;;;;;;;14.95;7.75;;;;;;;;;;5093543;28;20062;-72
2021/12/12 14:12:15;;;;;;;17.88;9.73;;;;;;;;;;5093730;28;20020;-70
2021/12/12 14:14:59;;;;;;;20.65;11.43;;;;;;;;;;5097138;28;20024;-71
2021/12/12 14:17:28;;;;;;;20.50;8.93;;;;;;;;;;5096995;28;20036;-71
2021/12/12 14:20:00;;;;;;;16.75;8.40;;;;;;;;;;5096452;28;20090;-71
2021/12/12 14:22:27;;;;;;;15.27;8.38;;;;;;;;;;5097097;28;20076;-72
2021/12/12 14:24:56;;;;;;;16.02;7.95;;;;;;;;;;5096760;28;20032;-74
2021/12/12 14:27:23;;;;;;;15.80;6.97;;;;;;;;;;5096808;28;20503;-72
2021/12/12 14:29:51;;;;;;;19.50;11.30;;;;;;;;;;5096755;28;20495;-71
2021/12/12 14:32:20;;;;;;;15.45;7.57;;;;;;;;;;5096342;28;20053;-70
2021/12/12 14:34:52;;;;;;;8.77;5.72;;;;;;;;;;5096732;28;20141;-71
2021/12/12 14:37:19;;;;;;;15.00;6.95;;;;;;;;;;5096845;28;20073;-70
2021/12/12 14:39:47;;;;;;;14.25;6.88;;;;;;;;;;5096045;28;20040;-70
2021/12/12 14:42:26;;;;;;;11.85;6.55;;;;;;;;;;5096782;28;20020;-70
2021/12/12 14:45:11;;;;;;;12.80;7.93;;;;;;;;;;5096724;28;20361;-70
2021/12/12 14:47:39;;;;;;;15.98;7.63;;;;;;;;;;5095960;28;20020;-71
2021/12/12 14:50:25;;;;;;;15.10;7.97;;;;;;;;;;5096432;28;20031;-71
2021/12/12 14:53:05;;;;;;;13.38;7.90;;;;;;;;;;5095218;28;20047;-71
2021/12/12 14:55:44;;;;;;;14.77;7.78;;;;;;;;;;5096449;28;20138;-71
2021/12/12 14:58:12;;;;;;;12.90;8.45;;;;;;;;;;5096442;28;20028;-71
2021/12/12 15:00:48;;;;;;;19.33;10.98;;;;;;;;;;5094517;28;20115;-71
2021/12/12 15:03:19;;;;;;;10.18;6.38;;;;;;;;;;5096235;28;20141;-71
2021/12/12 15:05:48;;;;;;;21.85;12.07;;;;;;;;;;5096156;28;20085;-71
2021/12/12 15:08:19;;;;;;;18.17;10.48;;;;;;;;;;5095601;28;20028;-71
2021/12/12 15:10:45;;;;;;;22.42;13.10;;;;;;;;;;5094759;28;20031;-71
2021/12/12 15:13:13;;;;;;;22.83;14.05;;;;;;;;;;5095972;28;20024;-71
2021/12/12 15:15:47;;;;;;;20.10;11.48;;;;;;;;;;5095585;28;20096;-71